LFOH/LEH METAR and TAF weather

Enter ICAO airport designator
Station Type Date Time Source
LFOH METAR 2019/06/26 20:00 UTC NOAA

LFOH 262000Z AUTO 08017KT CAVOK 17/15 Q1022


Station Type Date Time Source
LFOH Decoded METAR 2019/06/26 20:00 UTC NOAA

La Heve, France (LFOH) 49-31N 000-04E 103M
Jun 26, 2019 - 04:00 PM EDT / 2019.06.26 2000 UTC
Wind: from the E (080 degrees) at 20 MPH (17 KT):0
Visibility: greater than 7 mile(s):0
Temperature: 62 F (17 C)
Dew Point: 59 F (15 C)
Relative Humidity: 88%
Pressure (altimeter): 30.18 in. Hg (1022 hPa)
ob: LFOH 262000Z AUTO 08017KT CAVOK 17/15 Q1022
cycle: 20

Station Type Date Time Source
LFOH TAF 2019/06/26 18:21 UTC NOAA

TAF TAF LFOH 261813Z 2618/2712 CNL

Example: see airport list